Norwood Memorial Airport Norwood US
ICAO: KOWD
IATA: OWD
Category: Medium
Scheduled Services: No

Elevation: 49 ft
TransAlt. 18000 ft.

Airport Communications:
BOSTON APP:124.1
ATIS:119.95
CLNC DEL:121.8
CTAF:126
BOSTON DEP:124.1
GND:121.8
TWR:126

KOWD Zoom In..

Runways:

(A) RW 10 length 3995 ft width 75 ft
LOC 108.30 / hdg 104

(B) RW 17 length 4008 ft width 100 ft
LOC 108.30 / hdg 170

(C) RW 28 length 3995 ft width 75 ft
LOC 108.30 / hdg 284

(D) RW 35 length 4008 ft width 100 ft
LOC 108.30 / hdg 350

Location; KOWD
Day. 21 / Time. 14.53 Zulu
* Altimeter: 30.16
* Temperature: 22° c. 71.6°f.
* Wind from: 290° Speed 04 kn.
Dewpoint: 09° c.
Visibility: 10 Statute Miles.
Clouds: Clear (automated report).

KOWD 211453Z 29004KT 10SM CLR 22/09 A3016 RMK AO2 SLP212 T02170089 50003


Wind From 290°
Speed 04 kn.

 
 
jpsmedia.com for Web Design SOUNDCLOUD worldairports.se 2018   terms of use